Time;durP1;ratioP1;P1;durP2;ratioP2;P2;SDS_P1;SDS_P2;PMS_P1;PMS_P2;Temp;Humidity;BMP_temperature;BMP_pressure;BME280_temperature;BME280_humidity;BME280_pressure;Samples;Min_cycle;Max_cycle;Signal;HPM_P1;HPM_P2
2022/11/17 00:00:42;;;;;;;36.10;17.30;;;2.30;99.90;;;;;;5112785;28;20431;-78
2022/11/17 00:03:15;;;;;;;71.47;18.63;;;2.30;99.90;;;;;;5111623;27;20578;-76
2022/11/17 00:05:43;;;;;;;65.00;17.87;;;2.30;99.90;;;;;;5113663;28;20183;-76
2022/11/17 00:08:12;;;;;;;38.40;18.07;;;2.30;99.90;;;;;;5112188;27;20672;-78
2022/11/17 00:10:41;;;;;;;66.23;20.13;;;2.30;99.90;;;;;;5113959;27;20293;-78
2022/11/17 00:16:01;;;;;;;56.80;20.90;;;2.30;99.90;;;;;;5130058;27;20229;-76
2022/11/17 00:21:20;;;;;;;49.87;20.10;;;2.30;99.90;;;;;;5083080;27;20194;-81
2022/11/17 00:23:50;;;;;;;58.77;18.67;;;2.30;99.90;;;;;;5122682;27;20202;-81
2022/11/17 00:26:23;;;;;;;53.40;20.37;;;2.30;99.90;;;;;;5113729;27;20198;-80
2022/11/17 00:28:54;;;;;;;39.93;19.50;;;2.40;99.90;;;;;;5127501;27;20202;-78
2022/11/17 00:34:14;;;;;;;74.70;21.70;;;2.40;99.90;;;;;;5132070;27;20204;-78
2022/11/17 00:36:50;;;;;;;49.77;20.67;;;2.40;99.90;;;;;;5112635;28;20202;-78
2022/11/17 00:39:21;;;;;;;38.93;21.10;;;2.40;99.90;;;;;;5111373;27;20202;-79
2022/11/17 00:41:49;;;;;;;47.33;20.77;;;2.50;99.90;;;;;;5114798;27;20205;-80
2022/11/17 00:44:21;;;;;;;76.77;22.63;;;2.50;99.90;;;;;;5111302;27;20221;-81
2022/11/17 00:46:53;;;;;;;69.77;22.90;;;2.50;99.90;;;;;;5111637;27;20217;-78
2022/11/17 00:49:24;;;;;;;43.60;21.80;;;2.50;99.90;;;;;;5112744;28;20198;-77
2022/11/17 00:51:52;;;;;;;50.80;21.90;;;2.60;99.90;;;;;;5120406;27;20290;-79
2022/11/17 00:54:20;;;;;;;48.63;22.30;;;2.70;99.90;;;;;;5121160;27;20209;-80
2022/11/17 00:56:48;;;;;;;55.10;22.80;;;2.60;99.90;;;;;;5123314;27;21644;-81
2022/11/17 00:59:19;;;;;;;41.63;19.33;;;2.60;99.90;;;;;;5112013;27;20214;-80
2022/11/17 01:01:47;;;;;;;91.30;25.13;;;2.60;99.90;;;;;;5111587;27;20210;-79
2022/11/17 01:04:16;;;;;;;63.87;22.07;;;2.70;99.90;;;;;;5115322;27;20202;-79
2022/11/17 01:06:46;;;;;;;53.47;18.50;;;2.70;99.90;;;;;;5110831;27;20210;-78
2022/11/17 01:09:18;;;;;;;37.83;19.00;;;2.70;99.90;;;;;;5111691;27;20198;-79
2022/11/17 01:11:54;;;;;;;87.27;19.70;;;2.70;99.90;;;;;;5117596;27;20211;-78
2022/11/17 01:14:26;;;;;;;31.63;17.10;;;2.70;99.90;;;;;;5133647;27;20208;-80
2022/11/17 01:16:54;;;;;;;28.60;17.13;;;2.70;99.90;;;;;;5133170;27;20299;-80
2022/11/17 01:19:24;;;;;;;37.23;17.60;;;2.80;99.90;;;;;;5133393;27;20655;-80
2022/11/17 01:21:55;;;;;;;57.73;18.30;;;2.80;99.90;;;;;;5132703;27;20671;-77
2022/11/17 01:24:24;;;;;;;33.03;17.53;;;2.90;99.90;;;;;;5133628;27;20288;-78
2022/11/17 01:26:55;;;;;;;26.20;15.90;;;2.80;99.90;;;;;;5133366;27;20570;-79
2022/11/17 01:29:27;;;;;;;57.67;17.73;;;2.90;99.90;;;;;;5124097;27;20565;-80
2022/11/17 01:31:56;;;;;;;46.70;17.43;;;2.90;99.90;;;;;;5109561;27;20217;-78
2022/11/17 01:34:24;;;;;;;58.23;17.57;;;2.90;99.90;;;;;;5118003;27;20653;-80
2022/11/17 01:39:38;;;;;;;28.40;16.23;;;3.00;99.90;;;;;;5116533;28;20194;-81
2022/11/17 01:42:14;;;;;;;34.90;16.50;;;3.00;99.90;;;;;;5119773;28;20213;-76
2022/11/17 01:45:02;;;;;;;28.40;17.07;;;3.00;99.90;;;;;;5117830;27;20205;-77
2022/11/17 01:47:38;;;;;;;65.60;18.37;;;3.00;99.90;;;;;;5114681;27;20201;-78
2022/11/17 01:50:22;;;;;;;32.17;17.17;;;3.00;99.90;;;;;;5117733;27;20298;-79
2022/11/17 01:52:53;;;;;;;63.83;17.63;;;3.10;99.90;;;;;;5119570;27;20216;-80
2022/11/17 01:55:23;;;;;;;49.47;18.37;;;3.10;99.90;;;;;;5121200;27;20213;-80
2022/11/17 01:58:06;;;;;;;53.10;17.10;;;3.10;99.90;;;;;;5120163;27;20208;-79
2022/11/17 02:00:36;;;;;;;43.40;17.03;;;3.10;99.90;;;;;;5114833;27;20194;-80
2022/11/17 02:03:07;;;;;;;44.13;19.43;;;3.10;99.90;;;;;;5113826;27;20218;-77
2022/11/17 02:05:45;;;;;;;38.73;17.97;;;3.20;99.90;;;;;;5113109;27;20198;-79
2022/11/17 02:08:15;;;;;;;48.97;19.23;;;3.20;99.90;;;;;;5115613;28;20213;-76
2022/11/17 02:10:44;;;;;;;47.90;19.80;;;3.20;99.90;;;;;;5115455;28;20211;-77
2022/11/17 02:13:19;;;;;;;61.67;19.43;;;3.20;99.90;;;;;;5115882;28;20225;-77
2022/11/17 02:15:48;;;;;;;56.43;20.87;;;3.20;99.90;;;;;;5115883;28;20233;-78
2022/11/17 02:18:17;;;;;;;67.97;21.20;;;3.30;99.90;;;;;;5116125;28;20233;-80
2022/11/17 02:20:56;;;;;;;37.73;19.83;;;3.30;99.90;;;;;;5115916;28;20207;-81
2022/11/17 02:23:43;;;;;;;30.00;19.17;;;3.30;99.90;;;;;;5115841;27;20686;-79
2022/11/17 02:26:30;;;;;;;40.40;20.33;;;3.40;99.90;;;;;;5116354;28;20188;-79
2022/11/17 02:29:06;;;;;;;55.80;20.70;;;3.40;99.90;;;;;;5114354;27;20205;-79
2022/11/17 02:31:47;;;;;;;36.60;20.23;;;3.40;99.90;;;;;;5115464;27;20201;-79
2022/11/17 02:34:25;;;;;;;37.73;19.43;;;3.40;99.90;;;;;;5115157;27;20217;-79
2022/11/17 02:36:59;;;;;;;30.73;20.43;;;3.50;99.90;;;;;;5114434;27;20233;-80
2022/11/17 02:39:33;;;;;;;53.83;21.00;;;3.50;99.90;;;;;;5114958;27;20201;-79
2022/11/17 02:42:07;;;;;;;38.97;20.40;;;3.50;99.90;;;;;;5120797;27;20564;-76
2022/11/17 02:44:42;;;;;;;28.40;19.83;;;3.50;99.90;;;;;;5122760;27;20229;-76
2022/11/17 02:47:17;;;;;;;28.37;19.80;;;3.50;99.90;;;;;;5116833;27;20190;-78
2022/11/17 02:49:50;;;;;;;25.17;19.00;;;3.60;99.90;;;;;;5116159;27;20675;-80
2022/11/17 02:52:20;;;;;;;37.47;18.40;;;3.50;99.90;;;;;;5119466;27;20214;-80
2022/11/17 02:54:48;;;;;;;24.57;18.70;;;3.60;99.90;;;;;;5121898;27;20210;-80
2022/11/17 02:57:30;;;;;;;26.07;18.63;;;3.60;99.90;;;;;;5127036;27;20648;-81
2022/11/17 03:00:02;;;;;;;26.93;17.37;;;3.60;99.90;;;;;;5117609;27;20202;-76
2022/11/17 03:02:52;;;;;;;19.00;16.33;;;3.60;99.90;;;;;;5115786;27;20205;-78
2022/11/17 03:05:29;;;;;;;20.67;16.70;;;3.60;99.90;;;;;;5130517;27;20221;-80
2022/11/17 03:08:09;;;;;;;18.70;16.70;;;3.60;99.90;;;;;;5130544;27;20209;-77
2022/11/17 03:10:49;;;;;;;17.77;15.77;;;3.60;99.90;;;;;;5121145;27;20619;-80
2022/11/17 03:13:27;;;;;;;20.77;16.30;;;3.40;99.90;;;;;;5127076;27;20229;-80
2022/11/17 03:16:06;;;;;;;16.93;15.13;;;3.50;99.90;;;;;;5118379;27;20202;-78
2022/11/17 03:18:41;;;;;;;18.23;15.57;;;3.50;99.90;;;;;;5096893;27;20619;-78
2022/11/17 03:21:15;;;;;;;23.40;15.57;;;3.50;99.90;;;;;;5112735;27;20206;-78
2022/11/17 03:23:46;;;;;;;20.93;15.47;;;3.50;99.90;;;;;;5095214;27;20546;-79
2022/11/17 03:26:18;;;;;;;17.93;15.37;;;3.50;99.90;;;;;;5114626;28;20212;-80
2022/11/17 03:28:46;;;;;;;21.23;14.67;;;3.50;99.90;;;;;;5114707;28;20190;-76
2022/11/17 03:31:17;;;;;;;16.53;14.83;;;3.50;99.90;;;;;;5114871;28;20236;-80
2022/11/17 03:33:52;;;;;;;17.83;14.50;;;3.60;99.90;;;;;;5114237;28;20625;-79
2022/11/17 03:36:27;;;;;;;18.00;15.13;;;3.60;99.90;;;;;;5114864;28;20236;-79
2022/11/17 03:38:59;;;;;;;18.10;14.90;;;3.60;99.90;;;;;;5115098;28;20205;-75
2022/11/17 03:41:30;;;;;;;18.63;15.50;;;3.60;99.90;;;;;;5114632;28;20210;-77
2022/11/17 03:44:00;;;;;;;16.63;14.83;;;3.60;99.90;;;;;;5114186;28;20202;-82
2022/11/17 03:46:32;;;;;;;16.73;14.93;;;3.60;99.90;;;;;;5114638;28;20206;-77
2022/11/17 03:49:08;;;;;;;17.03;15.00;;;3.60;99.90;;;;;;5114725;27;20604;-80
2022/11/17 03:51:38;;;;;;;16.77;14.77;;;3.60;99.90;;;;;;5123635;27;20212;-81
2022/11/17 03:54:09;;;;;;;16.10;14.40;;;3.70;99.90;;;;;;5134382;27;20209;-80
2022/11/17 03:56:48;;;;;;;15.60;14.07;;;3.70;99.90;;;;;;5134939;27;20225;-79
2022/11/17 03:59:25;;;;;;;15.73;14.13;;;3.70;99.90;;;;;;5134281;27;20209;-80
2022/11/17 04:01:54;;;;;;;16.00;14.30;;;3.60;99.90;;;;;;5134695;27;20185;-75
2022/11/17 04:04:23;;;;;;;16.40;14.60;;;3.60;99.90;;;;;;5134826;27;20659;-79
2022/11/17 04:06:52;;;;;;;16.63;14.70;;;3.60;99.90;;;;;;5134640;27;20615;-79
2022/11/17 04:09:20;;;;;;;16.23;14.53;;;3.60;99.90;;;;;;5134963;27;20561;-80
2022/11/17 04:17:24;;;;;;;17.33;14.20;;;3.70;99.90;;;;;;5134480;27;20229;-79
2022/11/17 04:19:52;;;;;;;15.90;14.23;;;3.80;99.90;;;;;;5134352;27;20672;-77
2022/11/17 04:22:22;;;;;;;15.50;13.83;;;3.80;99.90;;;;;;5134146;27;20201;-80
2022/11/17 04:24:50;;;;;;;15.70;13.93;;;3.90;99.90;;;;;;5134514;27;20213;-80
2022/11/17 04:30:06;;;;;;;15.03;13.47;;;3.80;99.90;;;;;;5134176;27;20205;-79
2022/11/17 04:32:35;;;;;;;15.10;13.60;;;3.80;99.90;;;;;;5133819;27;20209;-80
2022/11/17 04:35:06;;;;;;;16.40;14.57;;;3.80;99.90;;;;;;5133852;27;20190;-78
2022/11/17 04:37:34;;;;;;;14.90;13.40;;;3.80;99.90;;;;;;5133629;27;20673;-79
2022/11/17 04:40:06;;;;;;;15.43;13.83;;;3.80;99.90;;;;;;5133412;27;20262;-79
2022/11/17 04:42:36;;;;;;;15.57;13.93;;;3.80;99.90;;;;;;5133615;27;20209;-79
2022/11/17 04:45:05;;;;;;;15.03;13.53;;;3.80;99.90;;;;;;5133833;27;20182;-80
2022/11/17 04:47:35;;;;;;;15.67;14.07;;;3.70;99.90;;;;;;5126734;27;20686;-80
2022/11/17 04:50:03;;;;;;;15.83;14.13;;;3.70;99.90;;;;;;5120791;27;20221;-80
2022/11/17 04:52:31;;;;;;;15.80;14.10;;;3.70;99.90;;;;;;5111565;28;20218;-80
2022/11/17 04:54:59;;;;;;;17.23;14.07;;;3.70;99.90;;;;;;5113357;28;20213;-80
2022/11/17 04:57:28;;;;;;;16.43;14.57;;;3.70;99.90;;;;;;5113306;28;20229;-78
2022/11/17 04:59:56;;;;;;;16.13;13.77;;;3.80;99.90;;;;;;5113317;28;20213;-81
2022/11/17 05:02:24;;;;;;;15.80;13.97;;;3.80;99.90;;;;;;5113192;28;20574;-79
2022/11/17 05:04:56;;;;;;;15.53;12.93;;;3.80;99.90;;;;;;5113409;28;20230;-79
2022/11/17 05:07:24;;;;;;;15.17;13.57;;;3.80;99.90;;;;;;5113036;28;20239;-79
2022/11/17 05:09:52;;;;;;;15.80;13.67;;;3.80;99.90;;;;;;5111974;28;20668;-79
2022/11/17 05:15:07;;;;;;;14.60;12.87;;;3.90;99.90;;;;;;5113251;28;20197;-79
2022/11/17 05:17:37;;;;;;;13.63;12.23;;;3.90;99.90;;;;;;5112711;28;20225;-78
2022/11/17 05:20:07;;;;;;;14.87;13.00;;;3.90;99.90;;;;;;5112751;28;20682;-80
2022/11/17 05:25:29;;;;;;;13.97;12.57;;;4.00;99.90;;;;;;5112964;28;20221;-80
2022/11/17 05:27:57;;;;;;;13.80;12.40;;;3.90;99.90;;;;;;5112600;28;20209;-77
2022/11/17 05:30:26;;;;;;;13.73;12.23;;;3.90;99.90;;;;;;5112403;28;20213;-80
2022/11/17 05:32:54;;;;;;;14.03;12.57;;;3.90;99.90;;;;;;5112315;28;20218;-78
2022/11/17 05:35:23;;;;;;;13.33;12.03;;;3.90;99.90;;;;;;5112739;28;20202;-80
2022/11/17 05:37:55;;;;;;;13.67;12.27;;;4.00;99.90;;;;;;5112623;28;20319;-75
2022/11/17 05:40:23;;;;;;;12.93;11.43;;;4.00;99.90;;;;;;5112662;28;20578;-79
2022/11/17 05:42:53;;;;;;;12.80;11.50;;;4.00;99.90;;;;;;5112180;28;20202;-78
2022/11/17 05:45:27;;;;;;;13.00;11.70;;;4.00;99.90;;;;;;5112832;28;20587;-78
2022/11/17 05:47:58;;;;;;;12.73;11.40;;;4.10;99.90;;;;;;5114291;28;20638;-76
2022/11/17 05:50:28;;;;;;;12.83;11.40;;;4.10;99.90;;;;;;5132922;28;20216;-77
2022/11/17 05:52:56;;;;;;;12.87;11.57;;;4.10;99.90;;;;;;5132271;28;20217;-80
2022/11/17 05:55:26;;;;;;;13.00;11.63;;;4.10;99.90;;;;;;5133001;28;20233;-80
2022/11/17 05:57:57;;;;;;;12.83;11.53;;;4.10;99.90;;;;;;5132744;28;20590;-78
2022/11/17 06:00:25;;;;;;;12.77;11.47;;;4.20;99.90;;;;;;5109030;28;20210;-80
2022/11/17 06:02:59;;;;;;;13.23;11.87;;;4.20;99.90;;;;;;5112693;28;20294;-79
2022/11/17 06:05:28;;;;;;;13.37;11.97;;;4.20;99.90;;;;;;5113032;28;20190;-79
2022/11/17 06:07:57;;;;;;;15.93;13.87;;;4.20;99.90;;;;;;5113107;28;20576;-79
2022/11/17 06:10:26;;;;;;;15.40;13.80;;;4.30;99.90;;;;;;5112905;28;20228;-78
2022/11/17 06:12:57;;;;;;;14.20;12.23;;;4.30;99.90;;;;;;5112656;28;20226;-79
2022/11/17 06:15:28;;;;;;;13.20;11.70;;;4.30;99.90;;;;;;5112693;28;20217;-77
2022/11/17 06:18:01;;;;;;;12.90;11.60;;;4.30;99.90;;;;;;5113075;28;20219;-78
2022/11/17 06:20:34;;;;;;;15.07;13.57;;;4.30;99.90;;;;;;5113446;28;20195;-75
2022/11/17 06:23:05;;;;;;;12.87;11.57;;;4.30;99.90;;;;;;5117426;28;20220;-77
2022/11/17 06:25:37;;;;;;;12.87;11.60;;;4.30;99.90;;;;;;5117248;28;20209;-79
2022/11/17 06:28:10;;;;;;;13.53;12.13;;;4.30;99.90;;;;;;5117475;28;20189;-75
2022/11/17 06:30:41;;;;;;;13.87;12.37;;;4.40;99.90;;;;;;5116947;28;20199;-79
2022/11/17 06:33:12;;;;;;;14.47;12.97;;;4.40;99.90;;;;;;5117853;28;20213;-78
2022/11/17 06:35:44;;;;;;;15.57;13.43;;;4.30;99.90;;;;;;5116683;28;20606;-77
2022/11/17 06:38:12;;;;;;;15.27;13.67;;;4.40;99.90;;;;;;5116688;28;20594;-77
2022/11/17 06:40:40;;;;;;;21.87;19.67;;;4.40;99.90;;;;;;5125453;27;20226;-78
2022/11/17 06:43:08;;;;;;;19.63;17.47;;;4.40;99.90;;;;;;5152280;27;20290;-77
2022/11/17 06:45:38;;;;;;;20.83;18.63;;;4.40;99.90;;;;;;5147197;27;20209;-76
2022/11/17 06:48:10;;;;;;;13.90;12.50;;;4.40;99.90;;;;;;5149663;27;20221;-78
2022/11/17 06:50:39;;;;;;;13.50;12.20;;;4.40;99.90;;;;;;5139476;27;20201;-77
2022/11/17 06:53:13;;;;;;;13.33;12.03;;;4.50;99.90;;;;;;5135953;27;20243;-78
2022/11/17 06:55:41;;;;;;;13.17;11.20;;;4.50;99.90;;;;;;5135956;27;20229;-78
2022/11/17 06:58:11;;;;;;;14.07;11.90;;;4.60;99.90;;;;;;5119755;27;20644;-80
2022/11/17 07:00:39;;;;;;;13.87;11.50;;;4.60;99.90;;;;;;5114780;28;20191;-80
2022/11/17 07:03:11;;;;;;;12.67;11.00;;;4.60;99.90;;;;;;5116311;28;20654;-79
2022/11/17 07:05:39;;;;;;;12.43;11.13;;;4.60;99.90;;;;;;5114362;28;20286;-78
2022/11/17 07:08:15;;;;;;;12.60;11.30;;;4.50;99.90;;;;;;5114463;28;20644;-78
2022/11/17 07:10:44;;;;;;;13.33;11.40;;;4.50;99.90;;;;;;5116317;28;20194;-74
2022/11/17 07:13:16;;;;;;;12.43;11.13;;;4.50;99.90;;;;;;5114935;27;20230;-74
2022/11/17 07:15:45;;;;;;;12.80;11.50;;;4.50;99.90;;;;;;5117007;28;20217;-77
2022/11/17 07:18:17;;;;;;;13.27;11.57;;;4.50;99.90;;;;;;5118513;28;20229;-76
2022/11/17 07:20:46;;;;;;;13.57;12.17;;;4.60;99.90;;;;;;5116130;28;20658;-77
2022/11/17 07:23:20;;;;;;;12.60;11.30;;;4.60;99.90;;;;;;5114818;27;20635;-77
2022/11/17 07:25:55;;;;;;;13.33;11.60;;;4.60;99.90;;;;;;5113613;27;20240;-79
2022/11/17 07:28:23;;;;;;;14.07;11.17;;;4.60;99.90;;;;;;5113796;28;20810;-79
2022/11/17 07:30:51;;;;;;;14.10;11.93;;;4.60;99.90;;;;;;5114373;28;20634;-80
2022/11/17 07:33:23;;;;;;;13.80;12.40;;;4.70;99.90;;;;;;5104738;27;20275;-80
2022/11/17 07:35:51;;;;;;;12.43;11.13;;;4.70;99.90;;;;;;5113866;28;20645;-80
2022/11/17 07:38:26;;;;;;;11.60;10.43;;;4.70;99.90;;;;;;5114304;28;20244;-79
2022/11/17 07:41:00;;;;;;;11.03;9.93;;;4.70;99.90;;;;;;5113337;28;20667;-79
2022/11/17 07:43:31;;;;;;;12.40;11.10;;;4.80;99.90;;;;;;5114423;28;20194;-79
2022/11/17 07:46:04;;;;;;;13.60;12.20;;;4.70;99.90;;;;;;5115514;27;20247;-80
2022/11/17 07:48:32;;;;;;;13.20;11.47;;;4.70;99.90;;;;;;5121694;27;20283;-77
2022/11/17 07:51:07;;;;;;;12.50;10.73;;;4.60;99.90;;;;;;5112542;27;20727;-79
2022/11/17 07:53:44;;;;;;;13.83;10.70;;;4.80;99.90;;;;;;5115531;28;20272;-75
2022/11/17 07:56:13;;;;;;;13.00;11.27;;;4.90;99.90;;;;;;5113762;28;20194;-77
2022/11/17 07:58:45;;;;;;;12.10;10.80;;;4.90;99.90;;;;;;5113555;28;20226;-79
2022/11/17 08:01:16;;;;;;;12.37;10.43;;;4.90;99.90;;;;;;5114048;28;20202;-78
2022/11/17 08:03:44;;;;;;;12.80;11.23;;;4.90;99.90;;;;;;5118004;28;20293;-77
2022/11/17 08:06:13;;;;;;;15.33;11.47;;;4.90;99.90;;;;;;5113591;28;20217;-80
2022/11/17 08:08:42;;;;;;;11.97;10.77;;;5.00;99.90;;;;;;5128072;27;20208;-80
2022/11/17 08:11:13;;;;;;;11.77;10.57;;;5.00;99.90;;;;;;5133426;27;20249;-79
2022/11/17 08:13:42;;;;;;;11.40;10.17;;;5.00;99.90;;;;;;5133165;27;20233;-79
2022/11/17 08:16:12;;;;;;;11.80;10.60;;;5.10;99.90;;;;;;5132817;27;20204;-78
2022/11/17 08:18:44;;;;;;;10.67;9.67;;;5.20;99.90;;;;;;5132759;27;20232;-79
2022/11/17 08:21:19;;;;;;;10.47;9.40;;;5.20;99.90;;;;;;5132573;27;20185;-77
2022/11/17 08:23:55;;;;;;;14.13;11.70;;;5.30;99.90;;;;;;5134718;27;20197;-77
2022/11/17 08:26:24;;;;;;;11.57;10.33;;;5.30;99.90;;;;;;5113588;27;20675;-79
2022/11/17 08:28:57;;;;;;;12.67;10.63;;;5.40;99.90;;;;;;5113565;28;20206;-79
2022/11/17 08:31:28;;;;;;;14.10;10.30;;;5.50;99.90;;;;;;5122306;27;20200;-80
2022/11/17 08:33:57;;;;;;;13.90;9.60;;;5.50;99.90;;;;;;5146726;27;20263;-79
2022/11/17 08:36:25;;;;;;;11.43;9.37;;;5.60;99.90;;;;;;5111850;28;20252;-76
2022/11/17 08:38:59;;;;;;;9.97;8.73;;;5.60;99.90;;;;;;5114195;27;20314;-79
2022/11/17 08:41:27;;;;;;;15.07;13.40;;;5.70;99.90;;;;;;5112603;28;20272;-78
2022/11/17 08:43:58;;;;;;;11.80;10.60;;;5.80;99.90;;;;;;5115256;27;20247;-79
2022/11/17 08:46:27;;;;;;;17.27;15.57;;;5.90;99.90;;;;;;5115605;27;20340;-78
2022/11/17 08:48:56;;;;;;;23.60;21.50;;;5.90;99.90;;;;;;5111919;27;20208;-79
2022/11/17 08:51:26;;;;;;;20.17;18.30;;;6.00;99.90;;;;;;5102936;27;20297;-79
2022/11/17 08:53:54;;;;;;;18.43;16.73;;;6.00;99.90;;;;;;5111689;28;20220;-79
2022/11/17 08:56:23;;;;;;;9.70;8.50;;;6.00;99.90;;;;;;5121302;27;20499;-78
2022/11/17 08:58:51;;;;;;;7.67;6.73;;;6.10;99.90;;;;;;5111854;28;20322;-77
2022/11/17 09:01:24;;;;;;;9.67;6.93;;;6.30;99.90;;;;;;5112373;28;20213;-76
2022/11/17 09:03:52;;;;;;;9.47;7.17;;;6.40;99.90;;;;;;5111439;27;20683;-80
2022/11/17 09:06:20;;;;;;;7.77;6.17;;;6.70;99.90;;;;;;5112771;28;20300;-79
2022/11/17 09:08:53;;;;;;;7.47;6.10;;;6.70;99.90;;;;;;5112155;28;20206;-80
2022/11/17 09:11:23;;;;;;;7.83;6.27;;;6.80;99.90;;;;;;5112629;28;20209;-78
2022/11/17 09:13:53;;;;;;;7.67;5.53;;;6.70;99.90;;;;;;5111135;27;20234;-78
2022/11/17 09:16:24;;;;;;;8.63;5.43;;;6.70;99.90;;;;;;5111133;27;20213;-76
2022/11/17 09:18:55;;;;;;;7.47;5.17;;;6.80;99.90;;;;;;5112086;28;20186;-79
2022/11/17 09:21:26;;;;;;;5.53;4.50;;;6.80;99.90;;;;;;5111240;28;20495;-79
2022/11/17 09:23:54;;;;;;;7.33;4.40;;;6.80;99.90;;;;;;5111746;28;20654;-79
2022/11/17 09:26:26;;;;;;;5.33;4.40;;;6.70;99.90;;;;;;5113052;28;20330;-79
2022/11/17 09:28:54;;;;;;;4.90;3.70;;;6.80;99.90;;;;;;5111999;28;20201;-78
2022/11/17 09:31:23;;;;;;;5.07;4.00;;;6.80;99.90;;;;;;5103869;28;20212;-80
2022/11/17 09:33:58;;;;;;;6.13;4.13;;;7.00;99.90;;;;;;5111544;28;20271;-79
2022/11/17 09:36:32;;;;;;;4.33;3.07;;;7.30;99.90;;;;;;5112150;28;20371;-78
2022/11/17 09:39:00;;;;;;;4.80;3.10;;;7.70;99.90;;;;;;5112161;28;20206;-77
2022/11/17 09:41:34;;;;;;;10.60;3.30;;;8.00;99.90;;;;;;5111481;27;20567;-76
2022/11/17 09:44:15;;;;;;;3.90;2.60;;;8.60;99.90;;;;;;5126947;27;20201;-80
2022/11/17 09:47:00;;;;;;;4.77;3.00;;;9.20;99.90;;;;;;5124076;28;20294;-78
2022/11/17 09:49:40;;;;;;;3.40;2.30;;;10.10;99.90;;;;;;5111411;28;20241;-80
2022/11/17 09:52:15;;;;;;;4.23;1.80;;;11.00;99.90;;;;;;5093559;28;20243;-80
2022/11/17 09:54:53;;;;;;;3.03;1.80;;;12.20;99.90;;;;;;5111563;28;20232;-79
2022/11/17 09:57:37;;;;;;;4.50;2.47;;;12.60;99.90;;;;;;5114109;28;20201;-79
2022/11/17 10:00:13;;;;;;;4.17;1.90;;;12.60;99.90;;;;;;5116712;28;20583;-77
2022/11/17 10:02:44;;;;;;;3.70;2.00;;;12.60;99.90;;;;;;5115044;28;20201;-76
2022/11/17 10:05:14;;;;;;;1.97;1.77;;;13.10;99.90;;;;;;5116272;28;20218;-75
2022/11/17 10:07:49;;;;;;;2.37;1.80;;;14.00;99.90;;;;;;5115917;28;20285;-78
2022/11/17 10:10:21;;;;;;;2.43;1.67;;;14.30;99.90;;;;;;5116040;28;20186;-77
2022/11/17 10:12:58;;;;;;;3.70;1.70;;;14.70;99.90;;;;;;5115734;28;20226;-78
2022/11/17 10:15:41;;;;;;;1.70;1.60;;;14.60;99.90;;;;;;5115164;27;20210;-77
2022/11/17 10:18:13;;;;;;;2.70;1.60;;;14.80;99.90;;;;;;5117018;28;20194;-78
2022/11/17 10:20:48;;;;;;;2.07;1.70;;;14.60;99.90;;;;;;5116580;28;20210;-77
2022/11/17 10:23:21;;;;;;;2.70;2.03;;;14.20;99.90;;;;;;5113904;27;20289;-78
2022/11/17 10:25:57;;;;;;;2.13;1.60;;;13.50;99.90;;;;;;5122238;27;20212;-75
2022/11/17 10:28:30;;;;;;;2.63;1.97;;;13.40;99.90;;;;;;5116793;28;20288;-77
2022/11/17 10:31:11;;;;;;;2.80;1.60;;;13.50;99.90;;;;;;5115240;28;20281;-77
2022/11/17 10:33:41;;;;;;;1.70;1.60;;;13.70;99.90;;;;;;5117108;28;20190;-78
2022/11/17 10:36:24;;;;;;;2.23;1.90;;;13.90;99.90;;;;;;5129572;28;20206;-76
2022/11/17 10:38:54;;;;;;;4.27;1.60;;;13.60;99.90;;;;;;5115446;28;20190;-76
2022/11/17 10:41:27;;;;;;;2.27;1.70;;;13.50;99.90;;;;;;5121080;27;20270;-75
2022/11/17 10:44:02;;;;;;;1.83;1.73;;;13.20;99.90;;;;;;5128689;27;20672;-77
2022/11/17 10:46:52;;;;;;;1.87;1.60;;;13.00;99.90;;;;;;5131638;27;20618;-76
2022/11/17 10:49:33;;;;;;;1.63;1.43;;;12.90;99.90;;;;;;5108605;27;20210;-76
2022/11/17 10:52:05;;;;;;;1.90;1.70;;;12.90;99.90;;;;;;5115315;28;20267;-77
2022/11/17 10:54:38;;;;;;;2.20;1.50;;;12.90;99.90;;;;;;5125152;27;20205;-78
2022/11/17 10:57:11;;;;;;;2.10;1.70;;;12.80;99.90;;;;;;5135959;27;20213;-76
2022/11/17 10:59:46;;;;;;;1.77;1.60;;;12.90;99.90;;;;;;5135313;27;20197;-77
2022/11/17 11:02:29;;;;;;;3.00;2.07;;;12.70;99.90;;;;;;5135193;27;20313;-77
2022/11/17 11:05:08;;;;;;;2.53;1.70;;;12.80;99.90;;;;;;5134953;27;20288;-77
2022/11/17 11:07:39;;;;;;;3.43;1.70;;;12.80;99.90;;;;;;5135348;27;20210;-77
2022/11/17 11:10:16;;;;;;;2.40;1.47;;;12.80;99.90;;;;;;5135038;27;20186;-76
2022/11/17 11:12:49;;;;;;;2.87;1.60;;;13.10;99.90;;;;;;5135814;27;20225;-76
2022/11/17 11:15:21;;;;;;;1.80;1.60;;;13.30;99.90;;;;;;5135492;27;20302;-75
2022/11/17 11:17:51;;;;;;;1.93;1.63;;;13.10;99.90;;;;;;5135132;27;20209;-73
2022/11/17 11:20:23;;;;;;;1.67;1.40;;;12.90;99.90;;;;;;5136165;27;20230;-73
2022/11/17 11:23:00;;;;;;;1.80;1.57;;;12.70;99.90;;;;;;5133600;27;20241;-75
2022/11/17 11:25:41;;;;;;;3.83;1.83;;;12.90;99.90;;;;;;5135482;27;20218;-73
2022/11/17 11:28:32;;;;;;;4.80;1.63;;;12.90;99.90;;;;;;5114969;27;20288;-75
2022/11/17 11:31:12;;;;;;;3.47;1.70;;;13.10;99.90;;;;;;5113825;28;20214;-74
2022/11/17 11:33:45;;;;;;;2.30;1.50;;;13.30;99.90;;;;;;5114241;28;20178;-73
2022/11/17 11:36:25;;;;;;;2.93;1.40;;;13.50;99.90;;;;;;5124612;28;20688;-79
2022/11/17 11:39:00;;;;;;;2.40;1.27;;;13.50;99.90;;;;;;5114139;28;20232;-78
2022/11/17 11:41:54;;;;;;;1.70;1.50;;;13.50;99.90;;;;;;5125902;27;20587;-77
2022/11/17 11:44:38;;;;;;;1.93;1.40;;;13.50;99.90;;;;;;5134524;27;20605;-78
2022/11/17 11:47:19;;;;;;;2.87;1.33;;;13.50;99.90;;;;;;5134097;27;20630;-77
2022/11/17 11:49:51;;;;;;;1.40;1.20;;;13.10;99.90;;;;;;5134903;27;20209;-78
2022/11/17 11:52:28;;;;;;;5.37;1.80;;;12.90;99.90;;;;;;5132117;27;20269;-78
2022/11/17 11:55:04;;;;;;;2.90;1.50;;;12.60;99.90;;;;;;5113111;28;20210;-76
2022/11/17 11:57:37;;;;;;;2.57;1.57;;;12.30;99.90;;;;;;5113201;28;20289;-76
2022/11/17 12:00:13;;;;;;;2.17;1.70;;;12.20;99.90;;;;;;5114668;28;20202;-75
2022/11/17 12:02:51;;;;;;;4.43;2.20;;;12.00;99.90;;;;;;5094511;28;20215;-78
2022/11/17 12:05:32;;;;;;;3.83;2.50;;;11.50;99.90;;;;;;5113355;27;20204;-77
2022/11/17 12:08:08;;;;;;;5.03;3.00;;;11.20;99.90;;;;;;5112695;28;20190;-78
2022/11/17 12:10:46;;;;;;;5.33;3.53;;;10.80;99.90;;;;;;5113361;28;20251;-77
2022/11/17 12:13:15;;;;;;;5.40;3.90;;;10.50;99.90;;;;;;5116442;28;20233;-77
2022/11/17 12:15:44;;;;;;;5.53;3.90;;;10.50;99.90;;;;;;5116566;28;20217;-77
2022/11/17 12:18:30;;;;;;;4.13;3.50;;;10.50;99.90;;;;;;5115483;27;20293;-77
2022/11/17 12:21:04;;;;;;;5.77;3.90;;;10.50;99.90;;;;;;5118105;27;20226;-78
2022/11/17 12:23:49;;;;;;;6.97;4.20;;;10.60;99.90;;;;;;5112913;27;20332;-77
2022/11/17 12:26:23;;;;;;;6.97;4.20;;;10.80;99.90;;;;;;5113712;28;20576;-76
2022/11/17 12:29:25;;;;;;;6.13;3.63;;;11.00;99.90;;;;;;5115060;28;20269;-74
2022/11/17 12:31:59;;;;;;;6.43;4.00;;;11.00;99.90;;;;;;5123892;27;20241;-75
2022/11/17 12:34:34;;;;;;;4.93;3.83;;;11.10;99.90;;;;;;5122082;27;20240;-76
2022/11/17 12:37:21;;;;;;;5.60;4.07;;;11.00;99.90;;;;;;5128461;27;20193;-77
2022/11/17 12:40:06;;;;;;;4.63;3.53;;;11.10;99.90;;;;;;5131979;27;20208;-77
2022/11/17 12:43:16;;;;;;;7.93;4.60;;;11.20;99.90;;;;;;5132630;27;20236;-76
2022/11/17 12:46:02;;;;;;;4.93;3.80;;;11.30;99.90;;;;;;5116051;27;20677;-78
2022/11/17 12:48:34;;;;;;;5.80;3.33;;;11.30;99.90;;;;;;5112588;27;20206;-79
2022/11/17 12:51:11;;;;;;;5.87;3.50;;;11.20;99.90;;;;;;5110859;27;20209;-78
2022/11/17 12:53:52;;;;;;;4.40;3.80;;;11.30;99.90;;;;;;5117728;27;20258;-75
2022/11/17 12:56:47;;;;;;;3.93;3.27;;;11.30;99.90;;;;;;5116090;27;20574;-78
2022/11/17 13:00:08;;;;;;;4.10;2.90;;;11.20;99.90;;;;;;5123571;27;20578;-77
2022/11/17 13:03:01;;;;;;;4.73;3.13;;;11.10;99.90;;;;;;5119463;27;20232;-76
2022/11/17 13:05:31;;;;;;;3.97;3.00;;;11.00;99.90;;;;;;5133320;27;20476;-76
2022/11/17 13:08:18;;;;;;;4.53;3.10;;;11.00;99.90;;;;;;5133613;27;20216;-73
2022/11/17 13:10:46;;;;;;;5.57;3.30;;;11.10;99.90;;;;;;5133305;27;20235;-78
2022/11/17 13:13:17;;;;;;;3.27;2.70;;;11.10;99.90;;;;;;5132670;27;20336;-74
2022/11/17 13:15:50;;;;;;;3.63;2.83;;;11.00;99.90;;;;;;5133166;27;20573;-78
2022/11/17 13:18:29;;;;;;;4.23;2.80;;;10.90;99.90;;;;;;5133342;27;20201;-78
2022/11/17 13:20:57;;;;;;;4.20;3.10;;;11.00;99.90;;;;;;5132313;27;20201;-75
2022/11/17 13:23:29;;;;;;;4.53;2.80;;;11.00;99.90;;;;;;5133282;27;20212;-78
2022/11/17 13:26:22;;;;;;;4.00;3.13;;;11.10;99.90;;;;;;5112025;27;20302;-77
2022/11/17 13:29:03;;;;;;;4.37;3.00;;;11.20;99.90;;;;;;5111925;28;20273;-77
2022/11/17 13:31:31;;;;;;;5.07;3.13;;;11.30;99.90;;;;;;5111194;28;20285;-75
2022/11/17 13:34:04;;;;;;;4.10;2.70;;;11.30;99.90;;;;;;5111812;28;20213;-77
2022/11/17 13:36:33;;;;;;;5.20;2.73;;;11.40;99.90;;;;;;5113260;28;20289;-77